Time;durP1;ratioP1;P1;durP2;ratioP2;P2;SDS_P1;SDS_P2;PMS_P1;PMS_P2;Temp;Humidity;BMP_temperature;BMP_pressure;BME280_temperature;BME280_humidity;BME280_pressure;Samples;Min_cycle;Max_cycle;Signal;HPM_P1;HPM_P2
2023/08/27 00:01:28;;;;;;;1.20;1.20;;;24.30;70.80;25.20;100220.00;;;;5009183;28;20673;-57
2023/08/27 00:03:55;;;;;;;1.30;1.30;;;24.20;70.70;25.20;100231.00;;;;4992975;28;20259;-58
2023/08/27 00:06:21;;;;;;;1.67;1.58;;;24.30;70.80;25.20;100244.00;;;;4992610;28;20176;-57
2023/08/27 00:08:47;;;;;;;1.50;1.40;;;24.20;70.70;25.10;100244.00;;;;4992145;28;20175;-59
2023/08/27 00:11:12;;;;;;;1.40;1.30;;;24.20;70.70;25.10;100240.00;;;;4992327;28;20177;-58
2023/08/27 00:13:38;;;;;;;1.65;1.55;;;24.20;70.70;25.10;100233.00;;;;4992285;28;20172;-58
2023/08/27 00:16:07;;;;;;;1.42;1.40;;;24.20;70.60;25.10;100241.00;;;;4992089;28;20674;-58
2023/08/27 00:18:33;;;;;;;1.50;1.40;;;24.20;70.70;25.10;100226.00;;;;4992176;28;20176;-57
2023/08/27 00:20:58;;;;;;;1.50;1.40;;;24.20;70.70;25.10;100217.00;;;;5019027;28;20685;-57
2023/08/27 00:23:24;;;;;;;1.20;1.20;;;24.20;70.70;25.10;100210.00;;;;5031309;28;20241;-59
2023/08/27 00:25:51;;;;;;;1.60;1.50;;;24.20;70.60;25.10;100198.00;;;;5031062;28;20298;-58
2023/08/27 00:28:17;;;;;;;1.48;1.38;;;24.20;70.60;25.10;100192.00;;;;5030961;28;20245;-58
2023/08/27 00:30:43;;;;;;;1.50;1.40;;;24.20;70.60;25.00;100188.00;;;;5030833;28;20187;-58
2023/08/27 00:33:09;;;;;;;1.40;1.40;;;24.10;70.60;25.00;100185.00;;;;5030933;28;20794;-58
2023/08/27 00:35:35;;;;;;;1.42;1.33;;;24.10;70.50;25.00;100178.00;;;;5030767;28;20202;-58
2023/08/27 00:38:01;;;;;;;1.25;1.25;;;24.10;70.50;25.00;100168.00;;;;5031066;28;20213;-57
2023/08/27 00:40:28;;;;;;;1.33;1.33;;;24.10;70.50;25.00;100163.00;;;;5030732;28;20195;-57
2023/08/27 00:42:55;;;;;;;1.02;1.02;;;24.10;70.60;25.00;100146.00;;;;5030939;28;20620;-57
2023/08/27 00:45:21;;;;;;;1.42;1.33;;;24.10;70.50;25.00;100145.00;;;;5013109;28;20650;-58
2023/08/27 00:47:47;;;;;;;1.25;1.25;;;24.10;70.40;25.00;100143.00;;;;5029794;28;20186;-57
2023/08/27 00:50:12;;;;;;;1.60;1.50;;;24.10;70.50;25.00;100132.00;;;;5029335;28;20202;-58
2023/08/27 00:52:38;;;;;;;1.50;1.50;;;24.10;71.00;25.00;100135.00;;;;5029514;28;20183;-57
2023/08/27 00:55:04;;;;;;;1.60;1.50;;;24.10;70.50;25.00;100130.00;;;;5013023;28;20616;-58
2023/08/27 00:57:31;;;;;;;1.23;1.23;;;24.10;70.50;25.00;100127.00;;;;5030611;28;20179;-58
2023/08/27 00:59:57;;;;;;;1.48;1.38;;;24.00;70.30;24.90;100135.00;;;;5029145;28;20367;-57
2023/08/27 01:02:23;;;;;;;1.40;1.40;;;24.00;70.30;24.90;100147.00;;;;5035379;28;20190;-58
2023/08/27 01:04:49;;;;;;;1.60;1.50;;;24.00;70.30;24.90;100139.00;;;;5049854;28;20175;-57
2023/08/27 01:07:19;;;;;;;1.60;1.50;;;24.10;70.50;24.90;100154.00;;;;5049316;28;20185;-58
2023/08/27 01:10:02;;;;;;;1.30;1.30;;;24.00;70.30;24.90;100144.00;;;;5034108;28;20573;-58
2023/08/27 01:13:09;;;;;;;1.65;1.55;;;24.00;70.50;24.90;100155.00;;;;5030574;28;20285;-58
2023/08/27 01:15:35;;;;;;;1.60;1.50;;;24.00;70.50;24.80;100160.00;;;;5029316;28;20211;-58
2023/08/27 01:18:00;;;;;;;1.55;1.48;;;24.00;70.50;24.80;100162.00;;;;5029464;28;20228;-57
2023/08/27 01:20:27;;;;;;;1.40;1.40;;;24.00;70.40;24.80;100162.00;;;;5003661;28;20261;-58
2023/08/27 01:22:53;;;;;;;1.42;1.42;;;23.90;70.30;24.80;100169.00;;;;5010960;28;20693;-57
2023/08/27 01:25:22;;;;;;;1.60;1.50;;;24.00;70.40;24.80;100183.00;;;;5010962;28;20180;-58
2023/08/27 01:28:08;;;;;;;1.42;1.38;;;23.90;70.40;24.80;100171.00;;;;4993238;28;20260;-59
2023/08/27 01:30:50;;;;;;;1.30;1.30;;;23.90;70.40;24.80;100167.00;;;;5010306;28;20211;-57
2023/08/27 01:33:21;;;;;;;1.40;1.40;;;23.90;70.30;24.80;100167.00;;;;4994803;28;20665;-57
2023/08/27 01:35:47;;;;;;;1.50;1.40;;;23.90;70.30;24.80;100164.00;;;;4993633;28;20278;-57
2023/08/27 01:38:13;;;;;;;1.42;1.40;;;23.90;70.30;24.80;100172.00;;;;4992858;28;20716;-58
2023/08/27 01:40:40;;;;;;;1.50;1.40;;;23.90;70.30;24.70;100186.00;;;;4992853;28;20184;-58
2023/08/27 01:43:05;;;;;;;1.35;1.35;;;23.90;70.30;24.70;100182.00;;;;5010391;28;20171;-58
2023/08/27 01:45:31;;;;;;;1.17;1.17;;;23.90;70.30;24.70;100181.00;;;;5010564;28;20214;-61
2023/08/27 01:47:57;;;;;;;1.25;1.25;;;23.80;70.10;24.70;100165.00;;;;5013949;28;20190;-58
2023/08/27 01:50:23;;;;;;;1.70;1.60;;;23.80;70.10;24.70;100163.00;;;;5032405;28;20196;-59
2023/08/27 01:52:48;;;;;;;1.55;1.45;;;23.80;70.10;24.70;100170.00;;;;5012461;28;20559;-58
2023/08/27 01:55:14;;;;;;;1.50;1.40;;;23.80;70.10;24.70;100165.00;;;;5010931;28;20199;-58
2023/08/27 01:57:40;;;;;;;1.58;1.48;;;23.80;70.10;24.70;100161.00;;;;5011494;28;20180;-58
2023/08/27 02:00:09;;;;;;;1.73;1.63;;;23.80;70.90;24.70;100157.00;;;;5011587;28;20202;-57
2023/08/27 02:02:38;;;;;;;1.60;1.50;;;23.80;70.20;24.70;100154.00;;;;5011987;28;20202;-58
2023/08/27 02:05:05;;;;;;;1.60;1.50;;;23.80;70.10;24.60;100156.00;;;;5023383;28;20175;-58
2023/08/27 02:07:33;;;;;;;1.50;1.50;;;23.70;70.10;24.60;100149.00;;;;5015115;28;20264;-58
2023/08/27 02:09:59;;;;;;;1.30;1.30;;;23.80;70.10;24.60;100143.00;;;;5009742;28;20642;-58
2023/08/27 02:12:25;;;;;;;1.30;1.30;;;23.80;70.10;24.60;100141.00;;;;5010134;28;20176;-57
2023/08/27 02:14:51;;;;;;;1.27;1.27;;;23.70;70.00;24.60;100144.00;;;;5009830;28;20574;-57
2023/08/27 02:17:16;;;;;;;1.48;1.40;;;23.70;70.10;24.60;100147.00;;;;5009939;28;20172;-56
2023/08/27 02:19:42;;;;;;;1.35;1.35;;;23.70;70.10;24.60;100147.00;;;;4995410;28;20179;-57
2023/08/27 02:22:08;;;;;;;1.50;1.40;;;23.70;70.10;24.60;100139.00;;;;5028803;28;20233;-57
2023/08/27 02:24:33;;;;;;;1.52;1.42;;;23.70;70.10;24.60;100141.00;;;;5029325;28;20167;-58
2023/08/27 02:26:59;;;;;;;1.67;1.58;;;23.70;70.10;24.30;100132.00;;;;5029550;28;20172;-58
2023/08/27 02:29:25;;;;;;;1.70;1.60;;;23.70;70.10;24.50;100122.00;;;;5029289;28;20237;-58
2023/08/27 02:31:51;;;;;;;1.33;1.33;;;23.60;70.00;24.50;100116.00;;;;5029517;28;20617;-58
2023/08/27 02:34:17;;;;;;;1.60;1.50;;;23.60;70.00;24.30;100107.00;;;;5029623;28;20167;-58
2023/08/27 02:36:43;;;;;;;1.38;1.38;;;23.60;70.00;24.50;100101.00;;;;5029169;28;20210;-58
2023/08/27 02:39:08;;;;;;;1.70;1.60;;;23.60;70.00;24.50;100109.00;;;;5029374;28;20198;-58
2023/08/27 02:41:34;;;;;;;1.60;1.50;;;23.60;70.10;24.50;100111.00;;;;5028040;28;20239;-58
2023/08/27 02:44:00;;;;;;;1.30;1.30;;;23.60;70.10;24.40;100104.00;;;;5029384;28;20170;-58
2023/08/27 02:46:25;;;;;;;1.38;1.27;;;23.60;70.00;24.40;100101.00;;;;5029038;28;20656;-58
2023/08/27 02:48:51;;;;;;;1.23;1.23;;;23.60;70.00;24.40;100104.00;;;;5028620;28;20175;-58
2023/08/27 02:51:17;;;;;;;1.33;1.30;;;23.60;70.00;24.40;100112.00;;;;5028907;28;20175;-57
2023/08/27 02:53:43;;;;;;;1.73;1.63;;;23.60;70.00;24.40;100111.00;;;;5029034;28;20707;-57
2023/08/27 02:56:08;;;;;;;1.23;1.23;;;23.60;70.00;24.40;100111.00;;;;5028628;28;20257;-59
2023/08/27 02:58:34;;;;;;;1.60;1.50;;;23.50;70.00;24.40;100115.00;;;;5028976;28;20258;-58
2023/08/27 03:01:00;;;;;;;1.30;1.30;;;23.60;70.10;24.40;100101.00;;;;5028823;28;20214;-58
2023/08/27 03:03:25;;;;;;;1.60;1.50;;;23.50;70.00;24.40;100087.00;;;;5029914;28;20167;-57
2023/08/27 03:05:51;;;;;;;1.52;1.42;;;23.60;70.00;24.40;100099.00;;;;5030151;28;20683;-57
2023/08/27 03:08:17;;;;;;;1.40;1.30;;;23.50;70.00;24.30;100102.00;;;;5029876;28;20194;-57
2023/08/27 03:10:42;;;;;;;1.60;1.50;;;23.50;70.00;24.30;100093.00;;;;5029987;28;20218;-58
2023/08/27 03:13:08;;;;;;;1.40;1.40;;;23.50;70.00;24.30;100096.00;;;;5030207;28;20695;-58
2023/08/27 03:15:34;;;;;;;1.55;1.45;;;23.50;70.00;24.30;100092.00;;;;5029713;28;20206;-57
2023/08/27 03:18:00;;;;;;;1.63;1.52;;;23.50;70.00;24.30;100098.00;;;;5029795;28;20167;-58
2023/08/27 03:20:26;;;;;;;1.70;1.60;;;23.40;69.90;24.30;100086.00;;;;5020195;28;20443;-58
2023/08/27 03:22:52;;;;;;;1.33;1.33;;;23.40;69.90;24.30;100088.00;;;;5010191;28;20194;-58
2023/08/27 03:25:17;;;;;;;1.67;1.60;;;23.40;69.90;24.20;100086.00;;;;4992463;28;20172;-58
2023/08/27 03:27:43;;;;;;;1.50;1.40;;;23.40;70.00;24.20;100089.00;;;;5009971;28;20172;-58
2023/08/27 03:30:09;;;;;;;1.27;1.27;;;23.40;69.90;24.20;100090.00;;;;5009740;28;20203;-57
2023/08/27 03:32:35;;;;;;;1.40;1.40;;;23.40;69.90;24.20;100084.00;;;;5011335;28;20523;-57
2023/08/27 03:35:01;;;;;;;2.28;1.50;;;23.40;70.00;24.20;100090.00;;;;5013525;28;20244;-58
2023/08/27 03:37:27;;;;;;;1.50;1.40;;;23.40;69.90;24.20;100093.00;;;;5014114;28;20614;-57
2023/08/27 03:39:53;;;;;;;1.53;1.43;;;23.40;70.00;24.20;100090.00;;;;5013653;28;20198;-58
2023/08/27 03:42:18;;;;;;;5.03;1.40;;;23.40;70.00;24.20;100084.00;;;;5012712;28;20499;-58
2023/08/27 03:44:44;;;;;;;4.70;1.47;;;23.40;70.00;24.20;100085.00;;;;5014040;28;20230;-57
2023/08/27 03:47:10;;;;;;;1.87;1.60;;;23.30;69.80;24.10;100070.00;;;;5013687;28;20204;-58
2023/08/27 03:49:36;;;;;;;1.87;1.60;;;23.30;69.90;24.10;100079.00;;;;5013401;28;20195;-58
2023/08/27 03:52:02;;;;;;;1.60;1.50;;;23.30;69.80;24.10;100090.00;;;;5021042;28;20275;-58
2023/08/27 03:54:27;;;;;;;2.75;1.50;;;23.30;70.00;24.10;100085.00;;;;5031056;28;20523;-58
2023/08/27 03:56:53;;;;;;;3.90;1.60;;;23.30;69.90;24.10;100090.00;;;;5014162;28;20426;-58
2023/08/27 03:59:19;;;;;;;2.57;1.60;;;23.30;70.00;24.10;100069.00;;;;5013714;28;20199;-58
2023/08/27 04:01:45;;;;;;;2.53;1.90;;;23.30;69.90;24.10;100075.00;;;;5007741;28;20607;-60
2023/08/27 04:04:11;;;;;;;1.70;1.50;;;23.20;69.80;24.00;100085.00;;;;5031870;28;20270;-59
2023/08/27 04:06:36;;;;;;;2.17;1.50;;;23.20;69.80;24.00;100073.00;;;;5039996;28;20179;-57
2023/08/27 04:09:04;;;;;;;1.63;1.40;;;23.20;69.80;24.00;100073.00;;;;5039497;28;20295;-58
2023/08/27 04:11:30;;;;;;;2.00;1.40;;;23.20;69.80;24.00;100082.00;;;;5033623;28;20432;-57
2023/08/27 04:13:56;;;;;;;2.27;1.57;;;23.20;69.80;24.00;100094.00;;;;5033011;28;20183;-57
2023/08/27 04:16:21;;;;;;;1.38;1.27;;;23.20;69.80;24.00;100094.00;;;;5045407;28;20194;-60
2023/08/27 04:18:47;;;;;;;1.83;1.40;;;23.20;69.80;24.00;100086.00;;;;5051751;28;20439;-60
2023/08/27 04:21:13;;;;;;;1.50;1.40;;;23.20;69.80;24.00;100095.00;;;;5040327;28;20188;-56
2023/08/27 04:23:39;;;;;;;1.60;1.50;;;23.20;70.00;24.00;100098.00;;;;5034487;28;20189;-57
2023/08/27 04:26:04;;;;;;;1.73;1.50;;;23.20;70.00;23.90;100078.00;;;;5033235;28;20564;-57
2023/08/27 04:28:31;;;;;;;2.08;1.50;;;23.20;70.00;23.90;100082.00;;;;5032566;28;20301;-57
2023/08/27 04:30:57;;;;;;;1.83;1.60;;;23.10;69.80;23.90;100077.00;;;;5032928;28;20214;-57
2023/08/27 04:33:23;;;;;;;1.80;1.50;;;23.20;70.00;23.90;100077.00;;;;5032478;28;20210;-57
2023/08/27 04:35:52;;;;;;;1.70;1.60;;;23.10;69.90;23.90;100075.00;;;;5014749;28;20589;-57
2023/08/27 04:38:18;;;;;;;1.50;1.40;;;23.10;69.90;23.90;100073.00;;;;5032111;28;20721;-57
2023/08/27 04:40:44;;;;;;;3.50;1.43;;;23.20;70.10;23.90;100070.00;;;;5032310;28;20294;-57
2023/08/27 04:43:09;;;;;;;2.27;1.60;;;23.10;70.00;23.90;100075.00;;;;5032057;28;20191;-57
2023/08/27 04:45:35;;;;;;;1.60;1.50;;;23.10;70.00;23.90;100078.00;;;;5026768;28;20527;-57
2023/08/27 04:48:01;;;;;;;1.57;1.47;;;23.10;70.00;23.90;100081.00;;;;5020557;28;20264;-57
2023/08/27 04:50:26;;;;;;;1.57;1.47;;;23.00;69.90;23.90;100079.00;;;;5012049;28;20204;-57
2023/08/27 04:52:52;;;;;;;2.30;1.37;;;23.10;70.00;23.80;100091.00;;;;5010080;28;20183;-57
2023/08/27 04:55:18;;;;;;;1.50;1.40;;;23.10;70.00;23.80;100093.00;;;;5031647;28;20593;-58
2023/08/27 04:57:44;;;;;;;1.40;1.30;;;23.00;69.90;23.80;100099.00;;;;5031794;28;20207;-57
2023/08/27 05:00:19;;;;;;;1.20;1.20;;;23.00;69.90;23.80;100103.00;;;;5031570;28;20203;-57
2023/08/27 05:02:48;;;;;;;1.60;1.50;;;23.00;69.90;23.80;100113.00;;;;5032025;28;20210;-57
2023/08/27 05:05:14;;;;;;;1.50;1.40;;;23.00;69.90;23.80;100107.00;;;;5014749;28;20579;-58
2023/08/27 05:07:40;;;;;;;1.40;1.30;;;23.00;69.90;23.80;100103.00;;;;5031815;28;20240;-57
2023/08/27 05:10:06;;;;;;;1.70;1.60;;;23.00;69.90;23.80;100102.00;;;;5031146;28;20748;-58
2023/08/27 05:12:32;;;;;;;2.00;1.50;;;23.00;69.90;23.80;100100.00;;;;5031664;28;20210;-58
2023/08/27 05:14:58;;;;;;;1.60;1.50;;;23.00;69.90;23.70;100106.00;;;;5031613;28;20613;-57
2023/08/27 05:17:24;;;;;;;1.70;1.60;;;23.00;69.90;23.70;100101.00;;;;5031538;28;20671;-57
2023/08/27 05:19:49;;;;;;;1.57;1.47;;;23.00;69.90;23.70;100101.00;;;;5031422;28;20708;-58
2023/08/27 05:22:15;;;;;;;1.50;1.47;;;23.00;69.90;23.70;100108.00;;;;5030557;28;20179;-58
2023/08/27 05:24:41;;;;;;;1.47;1.37;;;23.00;69.90;23.70;100113.00;;;;5013653;28;20656;-58
2023/08/27 05:27:06;;;;;;;1.43;1.33;;;22.90;69.80;23.70;100112.00;;;;5031444;28;20175;-57
2023/08/27 05:29:33;;;;;;;1.83;1.43;;;22.90;69.80;23.70;100124.00;;;;5031167;28;20195;-57
2023/08/27 05:31:58;;;;;;;1.60;1.50;;;22.90;69.80;23.70;100120.00;;;;5031661;28;20186;-57
2023/08/27 05:34:24;;;;;;;2.07;1.60;;;22.90;69.80;23.70;100126.00;;;;5011340;28;20176;-57
2023/08/27 05:36:50;;;;;;;1.40;1.30;;;22.90;69.80;23.70;100135.00;;;;5011073;28;20654;-58
2023/08/27 05:39:15;;;;;;;1.53;1.43;;;22.90;69.80;23.60;100138.00;;;;5029746;28;20195;-57
2023/08/27 05:41:41;;;;;;;1.37;1.30;;;22.90;69.80;23.60;100137.00;;;;5031449;28;20185;-57
2023/08/27 05:44:07;;;;;;;1.47;1.37;;;22.80;69.70;23.60;100124.00;;;;5031124;28;20537;-58
2023/08/27 05:46:33;;;;;;;1.33;1.33;;;22.80;69.70;23.60;100112.00;;;;5031242;28;20179;-58
2023/08/27 05:49:00;;;;;;;1.70;1.60;;;22.80;69.70;23.60;100119.00;;;;5030685;28;20700;-57
2023/08/27 05:51:25;;;;;;;1.37;1.30;;;22.80;69.70;23.60;100115.00;;;;5031123;28;20179;-58
2023/08/27 05:53:51;;;;;;;1.30;1.30;;;22.80;69.80;23.60;100114.00;;;;5036345;28;20186;-58
2023/08/27 05:56:17;;;;;;;1.60;1.50;;;22.80;69.90;23.60;100120.00;;;;5045596;28;20206;-58
2023/08/27 05:58:43;;;;;;;1.60;1.50;;;22.80;69.80;23.60;100115.00;;;;5031657;28;20190;-58
2023/08/27 06:01:08;;;;;;;1.40;1.40;;;22.80;69.80;23.60;100114.00;;;;5031487;28;20195;-59
2023/08/27 06:03:34;;;;;;;2.00;1.50;;;22.80;69.90;23.50;100108.00;;;;5031577;28;20629;-58
2023/08/27 06:06:00;;;;;;;1.70;1.60;;;22.80;69.90;23.50;100103.00;;;;5032543;28;20190;-58
2023/08/27 06:08:26;;;;;;;1.40;1.40;;;22.80;69.90;23.50;100107.00;;;;5036503;28;20175;-57
2023/08/27 06:10:51;;;;;;;1.40;1.40;;;22.80;69.90;23.50;100104.00;;;;5051450;28;20202;-58
2023/08/27 06:13:18;;;;;;;1.70;1.60;;;22.80;70.70;23.50;100110.00;;;;5030984;28;20672;-59
2023/08/27 06:15:44;;;;;;;1.50;1.40;;;22.80;69.90;23.50;100113.00;;;;5030677;28;20244;-58
2023/08/27 06:18:09;;;;;;;1.37;1.27;;;22.70;69.80;23.50;100107.00;;;;5030696;28;20628;-58
2023/08/27 06:20:35;;;;;;;1.30;1.20;;;22.70;69.80;23.50;100115.00;;;;5025498;28;20270;-58
2023/08/27 06:23:05;;;;;;;1.37;1.33;;;22.70;69.90;23.50;100124.00;;;;5027629;28;20787;-58
2023/08/27 06:25:37;;;;;;;1.57;1.47;;;22.70;69.90;23.50;100124.00;;;;5030565;28;20209;-57
2023/08/27 06:28:03;;;;;;;1.40;1.40;;;22.70;69.90;23.40;100118.00;;;;5030600;28;20178;-58
2023/08/27 06:30:30;;;;;;;1.47;1.37;;;22.70;69.90;23.50;100120.00;;;;5030308;28;20199;-57
2023/08/27 06:32:55;;;;;;;1.20;1.20;;;22.70;69.90;23.40;100132.00;;;;5030208;28;20182;-58
2023/08/27 06:35:22;;;;;;;2.00;1.40;;;22.70;70.00;23.40;100141.00;;;;5029951;28;20207;-59
2023/08/27 06:37:48;;;;;;;1.57;1.47;;;22.70;70.00;23.40;100117.00;;;;5030313;28;20261;-58
2023/08/27 06:40:14;;;;;;;1.93;1.50;;;22.70;70.00;23.40;100152.00;;;;5012404;28;20325;-57
2023/08/27 06:42:41;;;;;;;2.13;1.30;;;22.70;70.10;23.40;100148.00;;;;5030148;28;20310;-57
2023/08/27 06:45:07;;;;;;;1.50;1.40;;;22.70;70.00;23.40;100119.00;;;;5029943;28;20187;-59
2023/08/27 06:47:33;;;;;;;1.53;1.43;;;22.70;70.00;23.40;100134.00;;;;5012656;28;20185;-58
2023/08/27 06:49:59;;;;;;;2.20;1.33;;;22.60;69.90;23.40;100145.00;;;;5022023;28;20790;-58
2023/08/27 06:52:25;;;;;;;1.30;1.30;;;22.70;70.00;23.40;100129.00;;;;5022394;28;20175;-57
2023/08/27 06:54:50;;;;;;;1.30;1.30;;;22.70;70.10;23.40;100138.00;;;;5030072;28;20198;-57
2023/08/27 06:57:16;;;;;;;1.30;1.30;;;22.60;70.00;23.40;100125.00;;;;5030225;28;20175;-57
2023/08/27 06:59:42;;;;;;;1.53;1.43;;;22.60;69.90;23.40;100125.00;;;;5012088;28;20679;-57
2023/08/27 07:02:07;;;;;;;1.47;1.40;;;22.60;70.00;23.40;100127.00;;;;5012568;28;20806;-57
2023/08/27 07:04:33;;;;;;;1.40;1.40;;;22.60;70.00;23.40;100123.00;;;;5030171;28;20170;-58
2023/08/27 07:06:59;;;;;;;1.20;1.20;;;22.60;70.00;23.40;100127.00;;;;5030254;28;20262;-57
2023/08/27 07:09:27;;;;;;;1.23;1.23;;;22.60;70.00;23.30;100125.00;;;;5029893;28;20190;-57
2023/08/27 07:11:53;;;;;;;1.60;1.50;;;22.60;70.00;23.30;100134.00;;;;5030488;28;20595;-58
2023/08/27 07:14:19;;;;;;;1.53;1.43;;;22.60;70.00;23.30;100129.00;;;;5030198;28;20187;-58
2023/08/27 07:16:45;;;;;;;1.60;1.50;;;22.60;70.00;23.30;100128.00;;;;5029715;28;20203;-58
2023/08/27 07:19:10;;;;;;;1.60;1.50;;;22.60;70.30;23.30;100130.00;;;;5029354;28;20202;-58
2023/08/27 07:21:36;;;;;;;1.60;1.50;;;22.60;70.00;23.30;100142.00;;;;5006029;28;20175;-57
2023/08/27 07:24:02;;;;;;;1.40;1.30;;;22.60;70.00;23.30;100146.00;;;;5029305;28;20561;-58
2023/08/27 07:26:29;;;;;;;1.50;1.40;;;22.50;70.00;23.30;100155.00;;;;5025787;28;20180;-58
2023/08/27 07:28:55;;;;;;;1.50;1.40;;;22.60;70.10;23.30;100142.00;;;;5023768;28;20183;-58
2023/08/27 07:31:21;;;;;;;1.47;1.37;;;22.60;70.10;23.30;100134.00;;;;5029493;28;20435;-57
2023/08/27 07:33:47;;;;;;;1.60;1.50;;;22.60;70.10;23.30;100131.00;;;;5029290;28;20261;-57
2023/08/27 07:36:13;;;;;;;1.60;1.50;;;22.50;70.10;23.30;100136.00;;;;5029009;28;20194;-56
2023/08/27 07:38:42;;;;;;;1.70;1.50;;;22.60;70.20;23.30;100129.00;;;;5029050;28;20206;-57
2023/08/27 07:41:09;;;;;;;1.87;1.50;;;22.60;70.30;23.30;100132.00;;;;5029341;28;20179;-57
2023/08/27 07:43:35;;;;;;;1.67;1.50;;;22.60;70.20;23.30;100147.00;;;;5029548;28;20187;-57
2023/08/27 07:46:00;;;;;;;2.93;1.60;;;22.60;70.30;23.30;100152.00;;;;5029443;28;20179;-57
2023/08/27 07:48:27;;;;;;;2.73;1.60;;;22.50;70.20;23.30;100140.00;;;;5017522;28;20186;-57
2023/08/27 07:50:53;;;;;;;4.17;1.60;;;22.60;70.30;23.30;100125.00;;;;5025166;28;20210;-57
2023/08/27 07:53:19;;;;;;;3.07;1.40;;;22.50;70.30;23.30;100133.00;;;;5030298;28;20206;-57
2023/08/27 07:55:45;;;;;;;2.20;1.70;;;22.50;70.30;23.30;100136.00;;;;5032476;28;20203;-57
2023/08/27 07:58:10;;;;;;;2.60;1.40;;;22.60;70.50;23.30;100139.00;;;;5044327;28;20189;-58
2023/08/27 08:00:36;;;;;;;4.53;1.60;;;22.50;70.30;23.20;100145.00;;;;5018006;28;20218;-57
2023/08/27 08:03:02;;;;;;;1.50;1.40;;;22.50;70.50;23.20;100138.00;;;;5031810;28;20179;-58
2023/08/27 08:05:28;;;;;;;1.73;1.63;;;22.50;70.50;23.20;100140.00;;;;5029506;28;20191;-57
2023/08/27 08:07:54;;;;;;;1.50;1.40;;;22.50;70.50;23.20;100154.00;;;;5022221;28;20293;-58
2023/08/27 08:10:22;;;;;;;4.30;1.57;;;22.50;70.50;23.20;100151.00;;;;5028829;28;20314;-58
2023/08/27 08:12:49;;;;;;;1.50;1.40;;;22.50;70.50;23.20;100161.00;;;;5047612;28;20186;-58
2023/08/27 08:15:15;;;;;;;2.33;1.63;;;22.50;70.60;23.20;100173.00;;;;5031833;28;20715;-58
2023/08/27 08:17:43;;;;;;;1.60;1.50;;;22.50;70.60;23.20;100170.00;;;;5029238;28;20190;-58
2023/08/27 08:20:09;;;;;;;2.43;1.60;;;22.50;70.70;23.20;100163.00;;;;5029520;28;20198;-57
2023/08/27 08:22:35;;;;;;;1.40;1.20;;;22.50;70.70;23.20;100157.00;;;;5025899;28;20233;-57
2023/08/27 08:25:01;;;;;;;2.53;1.30;;;22.50;70.70;23.20;100140.00;;;;5032740;28;20210;-57
2023/08/27 08:27:26;;;;;;;1.50;1.40;;;22.50;70.70;23.20;100151.00;;;;5031295;28;20214;-57
2023/08/27 08:29:53;;;;;;;1.77;1.40;;;22.50;70.70;23.20;100163.00;;;;5032193;28;20195;-57
2023/08/27 08:32:19;;;;;;;1.70;1.50;;;22.50;70.70;23.20;100159.00;;;;5032378;28;20273;-57
2023/08/27 08:34:44;;;;;;;2.73;1.50;;;22.50;70.80;23.20;100161.00;;;;5026222;28;20186;-57
2023/08/27 08:37:10;;;;;;;2.10;1.40;;;22.50;70.70;23.20;100161.00;;;;5022139;28;20175;-57
2023/08/27 08:39:36;;;;;;;1.30;1.30;;;22.50;70.80;23.20;100170.00;;;;5032080;28;20206;-57
2023/08/27 08:42:15;;;;;;;1.57;1.50;;;22.50;70.90;23.20;100170.00;;;;5032314;28;20182;-57
2023/08/27 08:44:57;;;;;;;1.60;1.50;;;22.50;70.80;23.20;100171.00;;;;5014446;28;20174;-57
2023/08/27 08:47:23;;;;;;;1.93;1.40;;;22.50;70.90;23.20;100156.00;;;;5014579;28;20186;-57
2023/08/27 08:49:53;;;;;;;1.67;1.50;;;22.50;70.90;23.20;100153.00;;;;5014329;28;20206;-57
2023/08/27 08:52:19;;;;;;;1.60;1.50;;;22.50;70.90;23.20;100160.00;;;;5023569;28;20187;-57
2023/08/27 08:54:45;;;;;;;1.60;1.50;;;22.50;70.90;23.20;100163.00;;;;5006703;28;20190;-58
2023/08/27 08:57:11;;;;;;;1.60;1.50;;;22.50;70.80;23.20;100147.00;;;;5014556;28;20178;-57
2023/08/27 08:59:37;;;;;;;1.60;1.50;;;22.50;70.80;23.20;100162.00;;;;5014139;28;20199;-57
2023/08/27 09:02:02;;;;;;;1.60;1.50;;;22.50;70.90;23.20;100175.00;;;;5031690;28;20195;-57
2023/08/27 09:04:28;;;;;;;1.20;1.10;;;22.50;70.90;23.20;100174.00;;;;5030472;28;20563;-57
2023/08/27 09:06:54;;;;;;;1.53;1.43;;;22.50;70.90;23.20;100170.00;;;;5031887;28;20191;-57
2023/08/27 09:09:21;;;;;;;1.50;1.40;;;22.50;71.70;23.20;100170.00;;;;5031269;28;20198;-57
2023/08/27 09:11:48;;;;;;;1.40;1.40;;;22.50;70.90;23.20;100159.00;;;;5031857;28;20179;-57
2023/08/27 09:14:14;;;;;;;1.47;1.37;;;22.50;70.90;23.20;100154.00;;;;5030182;28;20179;-57
2023/08/27 09:16:39;;;;;;;1.30;1.30;;;22.50;70.90;23.20;100159.00;;;;5000552;28;20199;-56
2023/08/27 09:19:05;;;;;;;1.37;1.30;;;22.50;70.90;23.20;100172.00;;;;5020554;28;20191;-57
2023/08/27 09:21:31;;;;;;;1.40;1.30;;;22.50;71.00;23.20;100161.00;;;;5023405;28;20225;-57
2023/08/27 09:23:57;;;;;;;1.40;1.30;;;22.50;70.90;23.20;100168.00;;;;5030119;28;20556;-56
2023/08/27 09:26:23;;;;;;;1.60;1.50;;;22.50;71.00;23.20;100149.00;;;;5014046;28;20171;-57
2023/08/27 09:28:48;;;;;;;1.50;1.40;;;22.50;71.00;23.20;100145.00;;;;5013614;28;20194;-57
2023/08/27 09:31:37;;;;;;;1.40;1.30;;;22.50;71.00;23.20;100147.00;;;;5013568;28;20183;-57
2023/08/27 09:34:03;;;;;;;1.80;1.30;;;22.50;70.90;23.20;100154.00;;;;5031568;28;20178;-57
2023/08/27 09:36:37;;;;;;;1.70;1.60;;;22.50;71.70;23.20;100142.00;;;;5030882;28;20358;-57
2023/08/27 09:39:10;;;;;;;1.33;1.30;;;22.50;70.90;23.20;100151.00;;;;5030694;28;20415;-58
2023/08/27 09:41:43;;;;;;;1.30;1.30;;;22.50;71.00;23.20;100152.00;;;;5031278;28;20229;-58
2023/08/27 09:44:09;;;;;;;1.60;1.50;;;22.50;71.00;23.20;100144.00;;;;5031085;28;20186;-56
2023/08/27 09:46:36;;;;;;;1.33;1.30;;;22.50;71.00;23.20;100143.00;;;;5031343;28;20179;-56
2023/08/27 09:49:04;;;;;;;1.60;1.50;;;22.50;71.10;23.20;100138.00;;;;5030790;28;20199;-57
2023/08/27 09:51:37;;;;;;;1.30;1.20;;;22.50;71.00;23.20;100065.00;;;;5031208;28;20657;-57
2023/08/27 09:54:19;;;;;;;1.57;1.40;;;22.50;71.10;23.20;100136.00;;;;5031244;28;20275;-57
2023/08/27 09:56:50;;;;;;;1.43;1.33;;;22.50;71.10;23.20;100124.00;;;;5031586;28;20481;-57
2023/08/27 09:59:19;;;;;;;1.60;1.50;;;22.50;71.90;23.20;100121.00;;;;5039504;28;20194;-58
2023/08/27 10:01:51;;;;;;;1.40;1.40;;;22.50;71.10;23.20;100115.00;;;;5042785;28;20203;-57
2023/08/27 10:04:17;;;;;;;1.57;1.47;;;22.50;71.10;23.20;100122.00;;;;5031981;28;20267;-57
2023/08/27 10:06:43;;;;;;;1.17;1.17;;;22.50;71.10;23.30;100115.00;;;;5031163;28;20262;-58
2023/08/27 10:09:08;;;;;;;1.30;1.30;;;22.50;71.10;23.30;100126.00;;;;5031608;28;20233;-57
2023/08/27 10:11:35;;;;;;;1.70;1.60;;;22.50;71.20;23.30;100130.00;;;;5031926;28;20189;-58
2023/08/27 10:14:04;;;;;;;1.40;1.30;;;22.50;71.20;23.30;100119.00;;;;5020378;28;20193;-57
2023/08/27 10:16:31;;;;;;;1.47;1.40;;;22.50;71.20;23.30;100107.00;;;;5048321;28;20700;-57
2023/08/27 10:18:57;;;;;;;1.67;1.57;;;22.50;71.30;23.30;100108.00;;;;5031370;28;20238;-57
2023/08/27 10:21:23;;;;;;;1.60;1.47;;;22.50;71.30;23.30;100094.00;;;;5009718;28;20505;-57
2023/08/27 10:23:49;;;;;;;1.60;1.50;;;22.50;71.30;23.30;100102.00;;;;5027055;28;20187;-57
2023/08/27 10:26:15;;;;;;;1.30;1.30;;;22.50;71.40;23.30;100102.00;;;;5013215;28;20191;-57
2023/08/27 10:28:41;;;;;;;1.40;1.40;;;22.50;71.40;23.30;100094.00;;;;5029915;28;20715;-57
2023/08/27 10:31:07;;;;;;;1.43;1.43;;;22.50;71.50;23.30;100098.00;;;;5030150;28;20244;-57
2023/08/27 10:33:33;;;;;;;1.10;1.10;;;22.50;71.50;23.30;100097.00;;;;5012781;28;20190;-57
2023/08/27 10:36:04;;;;;;;1.43;1.40;;;22.50;71.50;23.30;100095.00;;;;5030205;28;20683;-57
2023/08/27 10:38:31;;;;;;;1.40;1.30;;;22.50;71.70;23.30;100083.00;;;;5012517;28;20187;-58
2023/08/27 10:40:57;;;;;;;1.50;1.40;;;22.50;71.60;23.30;100091.00;;;;5004860;28;20337;-57
2023/08/27 10:43:23;;;;;;;1.60;1.50;;;22.50;71.60;23.30;100073.00;;;;5028544;28;20661;-57
2023/08/27 10:45:50;;;;;;;1.40;1.40;;;22.50;71.60;23.30;100086.00;;;;5030359;28;20183;-58